sensor_id;sensor_type;location;lat;lon;timestamp;P1;durP1;ratioP1;P2;durP2;ratioP2
51066;SDS011;37112;45.892;-123.962;2023-05-02T00:01:12;14.60;;;2.20;;
51066;SDS011;37112;45.892;-123.962;2023-05-02T00:03:36;7.80;;;1.40;;
51066;SDS011;37112;45.892;-123.962;2023-05-02T00:06:12;6.90;;;1.10;;
51066;SDS011;37112;45.892;-123.962;2023-05-02T00:08:41;4.00;;;0.70;;
51066;SDS011;37112;45.892;-123.962;2023-05-02T00:10:58;2.40;;;0.80;;
51066;SDS011;37112;45.892;-123.962;2023-05-02T00:13:27;3.60;;;0.60;;
51066;SDS011;37112;45.892;-123.962;2023-05-02T00:16:02;3.40;;;0.80;;
51066;SDS011;37112;45.892;-123.962;2023-05-02T00:18:33;3.90;;;0.70;;
51066;SDS011;37112;45.892;-123.962;2023-05-02T00:21:07;4.20;;;1.00;;
51066;SDS011;37112;45.892;-123.962;2023-05-02T00:23:42;6.60;;;1.00;;
51066;SDS011;37112;45.892;-123.962;2023-05-02T00:26:17;5.00;;;0.80;;
51066;SDS011;37112;45.892;-123.962;2023-05-02T00:28:46;5.10;;;0.80;;
51066;SDS011;37112;45.892;-123.962;2023-05-02T00:31:21;5.60;;;0.80;;
51066;SDS011;37112;45.892;-123.962;2023-05-02T00:33:54;8.80;;;1.00;;
51066;SDS011;37112;45.892;-123.962;2023-05-02T00:36:30;3.80;;;0.60;;
51066;SDS011;37112;45.892;-123.962;2023-05-02T00:39:03;2.90;;;0.60;;
51066;SDS011;37112;45.892;-123.962;2023-05-02T00:41:39;5.70;;;0.60;;
51066;SDS011;37112;45.892;-123.962;2023-05-02T00:44:15;5.00;;;0.90;;
51066;SDS011;37112;45.892;-123.962;2023-05-02T00:46:51;3.40;;;0.70;;
51066;SDS011;37112;45.892;-123.962;2023-05-02T00:49:26;4.20;;;1.20;;
51066;SDS011;37112;45.892;-123.962;2023-05-02T00:51:57;9.90;;;1.40;;
51066;SDS011;37112;45.892;-123.962;2023-05-02T00:54:41;4.50;;;1.20;;
51066;SDS011;37112;45.892;-123.962;2023-05-02T00:57:18;9.70;;;1.30;;
51066;SDS011;37112;45.892;-123.962;2023-05-02T00:59:46;4.30;;;1.80;;
51066;SDS011;37112;45.892;-123.962;2023-05-02T01:02:24;4.50;;;1.10;;
51066;SDS011;37112;45.892;-123.962;2023-05-02T01:05:01;5.00;;;0.80;;
51066;SDS011;37112;45.892;-123.962;2023-05-02T01:07:49;8.00;;;0.90;;
51066;SDS011;37112;45.892;-123.962;2023-05-02T01:10:48;6.90;;;1.40;;
51066;SDS011;37112;45.892;-123.962;2023-05-02T01:13:20;5.60;;;2.20;;
51066;SDS011;37112;45.892;-123.962;2023-05-02T01:15:51;3.70;;;0.70;;
51066;SDS011;37112;45.892;-123.962;2023-05-02T01:18:27;7.20;;;0.70;;
51066;SDS011;37112;45.892;-123.962;2023-05-02T01:20:59;4.50;;;1.10;;
51066;SDS011;37112;45.892;-123.962;2023-05-02T01:23:37;6.40;;;0.80;;
51066;SDS011;37112;45.892;-123.962;2023-05-02T01:26:31;3.20;;;1.10;;
51066;SDS011;37112;45.892;-123.962;2023-05-02T01:29:17;7.70;;;1.80;;
51066;SDS011;37112;45.892;-123.962;2023-05-02T01:31:52;4.40;;;0.80;;
51066;SDS011;37112;45.892;-123.962;2023-05-02T01:34:31;4.20;;;0.70;;
51066;SDS011;37112;45.892;-123.962;2023-05-02T01:37:09;5.70;;;1.60;;
51066;SDS011;37112;45.892;-123.962;2023-05-02T01:39:35;3.20;;;0.60;;
51066;SDS011;37112;45.892;-123.962;2023-05-02T01:42:15;5.10;;;0.70;;
51066;SDS011;37112;45.892;-123.962;2023-05-02T01:44:50;5.80;;;0.80;;
51066;SDS011;37112;45.892;-123.962;2023-05-02T01:47:24;6.40;;;1.20;;
51066;SDS011;37112;45.892;-123.962;2023-05-02T01:49:49;4.50;;;0.80;;
51066;SDS011;37112;45.892;-123.962;2023-05-02T01:52:17;3.20;;;1.00;;
51066;SDS011;37112;45.892;-123.962;2023-05-02T01:54:46;5.30;;;1.30;;
51066;SDS011;37112;45.892;-123.962;2023-05-02T01:57:21;7.20;;;1.20;;
51066;SDS011;37112;45.892;-123.962;2023-05-02T01:59:59;2.90;;;0.80;;
51066;SDS011;37112;45.892;-123.962;2023-05-02T02:02:23;5.60;;;1.20;;
51066;SDS011;37112;45.892;-123.962;2023-05-02T02:04:52;5.90;;;1.20;;
51066;SDS011;37112;45.892;-123.962;2023-05-02T02:07:22;8.00;;;1.40;;
51066;SDS011;37112;45.892;-123.962;2023-05-02T02:09:42;6.20;;;1.40;;
51066;SDS011;37112;45.892;-123.962;2023-05-02T02:12:04;8.20;;;2.00;;
51066;SDS011;37112;45.892;-123.962;2023-05-02T02:14:37;5.70;;;1.10;;
51066;SDS011;37112;45.892;-123.962;2023-05-02T02:17:14;2.80;;;0.90;;
51066;SDS011;37112;45.892;-123.962;2023-05-02T02:19:40;3.40;;;1.30;;
51066;SDS011;37112;45.892;-123.962;2023-05-02T02:22:05;5.20;;;1.10;;
51066;SDS011;37112;45.892;-123.962;2023-05-02T02:24:35;2.70;;;0.70;;
51066;SDS011;37112;45.892;-123.962;2023-05-02T02:27:00;2.20;;;0.90;;
51066;SDS011;37112;45.892;-123.962;2023-05-02T02:29:29;4.60;;;1.40;;
51066;SDS011;37112;45.892;-123.962;2023-05-02T02:31:52;7.20;;;3.00;;
51066;SDS011;37112;45.892;-123.962;2023-05-02T02:34:27;6.00;;;1.20;;
51066;SDS011;37112;45.892;-123.962;2023-05-02T02:36:46;8.30;;;2.00;;
51066;SDS011;37112;45.892;-123.962;2023-05-02T02:39:16;4.60;;;1.00;;
51066;SDS011;37112;45.892;-123.962;2023-05-02T02:41:45;13.60;;;1.60;;
51066;SDS011;37112;45.892;-123.962;2023-05-02T02:44:17;3.70;;;0.90;;
51066;SDS011;37112;45.892;-123.962;2023-05-02T02:46:51;7.90;;;1.30;;
51066;SDS011;37112;45.892;-123.962;2023-05-02T02:49:23;6.30;;;1.00;;
51066;SDS011;37112;45.892;-123.962;2023-05-02T02:51:56;5.10;;;1.30;;
51066;SDS011;37112;45.892;-123.962;2023-05-02T02:54:23;3.30;;;0.70;;
51066;SDS011;37112;45.892;-123.962;2023-05-02T02:56:59;3.80;;;1.00;;
51066;SDS011;37112;45.892;-123.962;2023-05-02T03:02:05;2.30;;;0.60;;
51066;SDS011;37112;45.892;-123.962;2023-05-02T03:04:45;4.10;;;0.80;;
51066;SDS011;37112;45.892;-123.962;2023-05-02T03:07:21;8.10;;;2.20;;
51066;SDS011;37112;45.892;-123.962;2023-05-02T03:12:45;9.00;;;1.20;;
51066;SDS011;37112;45.892;-123.962;2023-05-02T03:15:24;5.70;;;1.00;;
51066;SDS011;37112;45.892;-123.962;2023-05-02T03:17:59;4.60;;;1.00;;
51066;SDS011;37112;45.892;-123.962;2023-05-02T03:20:26;12.20;;;1.80;;
51066;SDS011;37112;45.892;-123.962;2023-05-02T03:22:49;8.90;;;2.00;;
51066;SDS011;37112;45.892;-123.962;2023-05-02T03:25:09;6.70;;;1.70;;
51066;SDS011;37112;45.892;-123.962;2023-05-02T03:27:37;5.70;;;1.50;;
51066;SDS011;37112;45.892;-123.962;2023-05-02T03:30:22;11.50;;;2.30;;
51066;SDS011;37112;45.892;-123.962;2023-05-02T03:32:42;3.20;;;0.90;;
51066;SDS011;37112;45.892;-123.962;2023-05-02T03:35:10;8.90;;;1.70;;
51066;SDS011;37112;45.892;-123.962;2023-05-02T03:37:46;6.30;;;2.00;;
51066;SDS011;37112;45.892;-123.962;2023-05-02T03:40:30;15.70;;;2.70;;
51066;SDS011;37112;45.892;-123.962;2023-05-02T03:43:02;7.80;;;1.50;;
51066;SDS011;37112;45.892;-123.962;2023-05-02T03:45:30;5.70;;;1.30;;
51066;SDS011;37112;45.892;-123.962;2023-05-02T03:47:48;9.60;;;1.20;;
51066;SDS011;37112;45.892;-123.962;2023-05-02T03:50:18;6.50;;;1.50;;
51066;SDS011;37112;45.892;-123.962;2023-05-02T03:52:35;11.80;;;1.60;;
51066;SDS011;37112;45.892;-123.962;2023-05-02T03:55:03;13.80;;;2.80;;
51066;SDS011;37112;45.892;-123.962;2023-05-02T03:57:28;5.00;;;1.40;;
51066;SDS011;37112;45.892;-123.962;2023-05-02T03:59:45;6.10;;;1.40;;
51066;SDS011;37112;45.892;-123.962;2023-05-02T04:02:16;16.20;;;1.40;;
51066;SDS011;37112;45.892;-123.962;2023-05-02T04:04:51;10.20;;;1.50;;
51066;SDS011;37112;45.892;-123.962;2023-05-02T04:07:07;6.30;;;1.60;;
51066;SDS011;37112;45.892;-123.962;2023-05-02T04:09:47;6.90;;;1.60;;
51066;SDS011;37112;45.892;-123.962;2023-05-02T04:12:10;9.20;;;1.60;;
51066;SDS011;37112;45.892;-123.962;2023-05-02T04:14:36;7.10;;;1.90;;
51066;SDS011;37112;45.892;-123.962;2023-05-02T04:17:02;8.80;;;1.30;;
51066;SDS011;37112;45.892;-123.962;2023-05-02T04:19:26;5.70;;;1.40;;
51066;SDS011;37112;45.892;-123.962;2023-05-02T04:21:45;12.00;;;1.60;;
51066;SDS011;37112;45.892;-123.962;2023-05-02T04:24:09;6.30;;;1.40;;
51066;SDS011;37112;45.892;-123.962;2023-05-02T04:29:18;21.20;;;3.30;;
51066;SDS011;37112;45.892;-123.962;2023-05-02T04:34:24;7.30;;;1.40;;
51066;SDS011;37112;45.892;-123.962;2023-05-02T04:36:59;7.60;;;2.00;;
51066;SDS011;37112;45.892;-123.962;2023-05-02T04:39:22;13.60;;;2.50;;
51066;SDS011;37112;45.892;-123.962;2023-05-02T04:41:44;10.30;;;2.00;;
51066;SDS011;37112;45.892;-123.962;2023-05-02T04:44:00;9.30;;;1.40;;
51066;SDS011;37112;45.892;-123.962;2023-05-02T04:46:25;9.00;;;1.70;;
51066;SDS011;37112;45.892;-123.962;2023-05-02T04:48:51;6.90;;;1.60;;
51066;SDS011;37112;45.892;-123.962;2023-05-02T04:51:14;5.50;;;1.70;;
51066;SDS011;37112;45.892;-123.962;2023-05-02T04:53:47;7.90;;;1.70;;
51066;SDS011;37112;45.892;-123.962;2023-05-02T04:56:22;6.50;;;1.10;;
51066;SDS011;37112;45.892;-123.962;2023-05-02T04:58:37;11.60;;;1.80;;
51066;SDS011;37112;45.892;-123.962;2023-05-02T05:00:53;7.80;;;1.40;;
51066;SDS011;37112;45.892;-123.962;2023-05-02T05:03:18;10.70;;;1.70;;
51066;SDS011;37112;45.892;-123.962;2023-05-02T05:05:46;17.20;;;3.30;;
51066;SDS011;37112;45.892;-123.962;2023-05-02T05:08:22;16.60;;;3.30;;
51066;SDS011;37112;45.892;-123.962;2023-05-02T05:10:49;21.10;;;4.00;;
51066;SDS011;37112;45.892;-123.962;2023-05-02T05:13:15;10.30;;;1.40;;
51066;SDS011;37112;45.892;-123.962;2023-05-02T05:15:43;22.70;;;3.30;;
51066;SDS011;37112;45.892;-123.962;2023-05-02T05:18:09;15.00;;;2.40;;
51066;SDS011;37112;45.892;-123.962;2023-05-02T05:20:46;9.10;;;1.70;;
51066;SDS011;37112;45.892;-123.962;2023-05-02T05:23:10;5.80;;;1.50;;
51066;SDS011;37112;45.892;-123.962;2023-05-02T05:25:29;13.60;;;1.90;;
51066;SDS011;37112;45.892;-123.962;2023-05-02T05:27:45;8.80;;;1.60;;
51066;SDS011;37112;45.892;-123.962;2023-05-02T05:30:15;5.50;;;1.40;;
51066;SDS011;37112;45.892;-123.962;2023-05-02T05:32:33;7.50;;;2.10;;
51066;SDS011;37112;45.892;-123.962;2023-05-02T05:35:01;11.80;;;2.70;;
51066;SDS011;37112;45.892;-123.962;2023-05-02T05:37:33;17.80;;;2.30;;
51066;SDS011;37112;45.892;-123.962;2023-05-02T05:39:56;9.30;;;1.50;;
51066;SDS011;37112;45.892;-123.962;2023-05-02T05:42:33;8.80;;;1.50;;
51066;SDS011;37112;45.892;-123.962;2023-05-02T05:45:09;7.30;;;1.40;;
51066;SDS011;37112;45.892;-123.962;2023-05-02T05:47:39;6.70;;;1.80;;
51066;SDS011;37112;45.892;-123.962;2023-05-02T05:50:14;5.10;;;1.40;;
51066;SDS011;37112;45.892;-123.962;2023-05-02T05:52:49;9.00;;;1.60;;
51066;SDS011;37112;45.892;-123.962;2023-05-02T05:55:17;6.90;;;1.20;;
51066;SDS011;37112;45.892;-123.962;2023-05-02T05:57:50;7.40;;;1.40;;
51066;SDS011;37112;45.892;-123.962;2023-05-02T06:00:25;9.40;;;1.60;;
51066;SDS011;37112;45.892;-123.962;2023-05-02T06:03:07;7.20;;;2.10;;
51066;SDS011;37112;45.892;-123.962;2023-05-02T06:05:34;5.50;;;1.40;;
51066;SDS011;37112;45.892;-123.962;2023-05-02T06:08:08;6.10;;;1.30;;
51066;SDS011;37112;45.892;-123.962;2023-05-02T06:10:43;6.00;;;1.80;;
51066;SDS011;37112;45.892;-123.962;2023-05-02T06:13:10;7.60;;;1.40;;
51066;SDS011;37112;45.892;-123.962;2023-05-02T06:15:34;4.90;;;1.30;;
51066;SDS011;37112;45.892;-123.962;2023-05-02T06:18:09;9.60;;;1.50;;
51066;SDS011;37112;45.892;-123.962;2023-05-02T06:20:44;8.40;;;1.40;;
51066;SDS011;37112;45.892;-123.962;2023-05-02T06:23:19;10.70;;;1.70;;
51066;SDS011;37112;45.892;-123.962;2023-05-02T06:25:55;6.90;;;1.50;;
51066;SDS011;37112;45.892;-123.962;2023-05-02T06:28:32;7.90;;;1.50;;
51066;SDS011;37112;45.892;-123.962;2023-05-02T06:30:59;10.70;;;1.90;;
51066;SDS011;37112;45.892;-123.962;2023-05-02T06:33:35;8.60;;;1.60;;
51066;SDS011;37112;45.892;-123.962;2023-05-02T06:35:59;7.50;;;1.60;;
51066;SDS011;37112;45.892;-123.962;2023-05-02T06:38:35;8.70;;;1.40;;
51066;SDS011;37112;45.892;-123.962;2023-05-02T06:41:14;7.80;;;1.20;;
51066;SDS011;37112;45.892;-123.962;2023-05-02T06:43:48;8.20;;;1.30;;
51066;SDS011;37112;45.892;-123.962;2023-05-02T06:46:25;10.00;;;1.80;;
51066;SDS011;37112;45.892;-123.962;2023-05-02T06:49:04;8.90;;;1.50;;
51066;SDS011;37112;45.892;-123.962;2023-05-02T06:51:40;6.60;;;1.60;;
51066;SDS011;37112;45.892;-123.962;2023-05-02T06:54:08;8.90;;;1.50;;
51066;SDS011;37112;45.892;-123.962;2023-05-02T06:56:35;5.20;;;1.60;;
51066;SDS011;37112;45.892;-123.962;2023-05-02T06:59:03;9.30;;;1.40;;
51066;SDS011;37112;45.892;-123.962;2023-05-02T07:01:27;5.80;;;1.80;;
51066;SDS011;37112;45.892;-123.962;2023-05-02T07:04:02;10.30;;;1.30;;
51066;SDS011;37112;45.892;-123.962;2023-05-02T07:06:36;9.70;;;1.50;;
51066;SDS011;37112;45.892;-123.962;2023-05-02T07:09:10;6.50;;;1.40;;
51066;SDS011;37112;45.892;-123.962;2023-05-02T07:11:44;9.40;;;1.70;;
51066;SDS011;37112;45.892;-123.962;2023-05-02T07:14:20;8.20;;;2.10;;
51066;SDS011;37112;45.892;-123.962;2023-05-02T07:16:58;5.90;;;1.40;;
51066;SDS011;37112;45.892;-123.962;2023-05-02T07:19:28;5.90;;;1.30;;
51066;SDS011;37112;45.892;-123.962;2023-05-02T07:22:01;10.70;;;2.40;;
51066;SDS011;37112;45.892;-123.962;2023-05-02T07:24:39;11.80;;;4.70;;
51066;SDS011;37112;45.892;-123.962;2023-05-02T07:27:08;17.70;;;2.50;;
51066;SDS011;37112;45.892;-123.962;2023-05-02T07:29:37;14.80;;;2.90;;
51066;SDS011;37112;45.892;-123.962;2023-05-02T07:32:12;29.60;;;3.80;;
51066;SDS011;37112;45.892;-123.962;2023-05-02T07:34:47;18.80;;;3.30;;
51066;SDS011;37112;45.892;-123.962;2023-05-02T07:37:24;17.40;;;3.20;;
51066;SDS011;37112;45.892;-123.962;2023-05-02T07:40:01;19.20;;;2.50;;
51066;SDS011;37112;45.892;-123.962;2023-05-02T07:42:38;16.50;;;2.80;;
51066;SDS011;37112;45.892;-123.962;2023-05-02T07:45:15;8.90;;;2.50;;
51066;SDS011;37112;45.892;-123.962;2023-05-02T07:47:50;7.70;;;2.40;;
51066;SDS011;37112;45.892;-123.962;2023-05-02T07:50:25;9.50;;;2.40;;
51066;SDS011;37112;45.892;-123.962;2023-05-02T07:53:00;13.50;;;2.60;;
51066;SDS011;37112;45.892;-123.962;2023-05-02T07:55:35;7.30;;;2.20;;
51066;SDS011;37112;45.892;-123.962;2023-05-02T07:58:10;10.60;;;2.20;;
51066;SDS011;37112;45.892;-123.962;2023-05-02T08:00:45;12.30;;;2.40;;
51066;SDS011;37112;45.892;-123.962;2023-05-02T08:03:21;12.20;;;2.20;;
51066;SDS011;37112;45.892;-123.962;2023-05-02T08:05:44;11.40;;;2.80;;
51066;SDS011;37112;45.892;-123.962;2023-05-02T08:08:19;9.70;;;2.00;;
51066;SDS011;37112;45.892;-123.962;2023-05-02T08:10:54;15.00;;;2.00;;
51066;SDS011;37112;45.892;-123.962;2023-05-02T08:13:29;11.30;;;2.20;;
51066;SDS011;37112;45.892;-123.962;2023-05-02T08:16:04;11.60;;;2.20;;
51066;SDS011;37112;45.892;-123.962;2023-05-02T08:18:40;14.10;;;2.10;;
51066;SDS011;37112;45.892;-123.962;2023-05-02T08:21:15;8.50;;;2.30;;
51066;SDS011;37112;45.892;-123.962;2023-05-02T08:23:50;11.90;;;2.40;;
51066;SDS011;37112;45.892;-123.962;2023-05-02T08:26:31;15.50;;;1.90;;
51066;SDS011;37112;45.892;-123.962;2023-05-02T08:29:02;10.30;;;2.30;;
51066;SDS011;37112;45.892;-123.962;2023-05-02T08:31:32;13.80;;;2.50;;
51066;SDS011;37112;45.892;-123.962;2023-05-02T08:34:07;12.10;;;2.00;;
51066;SDS011;37112;45.892;-123.962;2023-05-02T08:36:42;16.40;;;2.20;;
51066;SDS011;37112;45.892;-123.962;2023-05-02T08:39:16;11.80;;;2.30;;
51066;SDS011;37112;45.892;-123.962;2023-05-02T08:41:51;9.50;;;2.40;;
51066;SDS011;37112;45.892;-123.962;2023-05-02T08:44:26;14.00;;;2.90;;
51066;SDS011;37112;45.892;-123.962;2023-05-02T08:47:02;7.70;;;1.80;;
51066;SDS011;37112;45.892;-123.962;2023-05-02T08:49:41;18.40;;;2.30;;
51066;SDS011;37112;45.892;-123.962;2023-05-02T08:52:11;8.00;;;2.90;;
51066;SDS011;37112;45.892;-123.962;2023-05-02T08:54:38;9.20;;;1.80;;
51066;SDS011;37112;45.892;-123.962;2023-05-02T08:57:07;11.80;;;2.60;;
51066;SDS011;37112;45.892;-123.962;2023-05-02T08:59:36;18.90;;;2.70;;
51066;SDS011;37112;45.892;-123.962;2023-05-02T09:02:15;5.80;;;1.70;;
51066;SDS011;37112;45.892;-123.962;2023-05-02T09:04:53;15.90;;;3.10;;
51066;SDS011;37112;45.892;-123.962;2023-05-02T09:07:33;10.00;;;2.20;;
51066;SDS011;37112;45.892;-123.962;2023-05-02T09:10:18;9.10;;;2.00;;
51066;SDS011;37112;45.892;-123.962;2023-05-02T09:12:48;11.20;;;2.70;;
51066;SDS011;37112;45.892;-123.962;2023-05-02T09:15:23;11.00;;;1.90;;
51066;SDS011;37112;45.892;-123.962;2023-05-02T09:17:48;10.50;;;2.90;;
51066;SDS011;37112;45.892;-123.962;2023-05-02T09:20:17;9.90;;;1.80;;
51066;SDS011;37112;45.892;-123.962;2023-05-02T09:22:52;10.30;;;2.20;;
51066;SDS011;37112;45.892;-123.962;2023-05-02T09:25:34;9.70;;;2.30;;
51066;SDS011;37112;45.892;-123.962;2023-05-02T09:28:09;10.90;;;2.50;;
51066;SDS011;37112;45.892;-123.962;2023-05-02T09:30:44;11.60;;;2.20;;
51066;SDS011;37112;45.892;-123.962;2023-05-02T09:33:28;17.10;;;3.30;;
51066;SDS011;37112;45.892;-123.962;2023-05-02T09:35:56;9.30;;;1.90;;
51066;SDS011;37112;45.892;-123.962;2023-05-02T09:38:30;12.50;;;3.80;;
51066;SDS011;37112;45.892;-123.962;2023-05-02T09:40:54;11.70;;;2.30;;
51066;SDS011;37112;45.892;-123.962;2023-05-02T09:43:32;9.30;;;1.90;;
51066;SDS011;37112;45.892;-123.962;2023-05-02T09:46:02;14.50;;;3.70;;
51066;SDS011;37112;45.892;-123.962;2023-05-02T09:51:26;10.50;;;3.60;;
51066;SDS011;37112;45.892;-123.962;2023-05-02T09:54:01;13.60;;;2.40;;
51066;SDS011;37112;45.892;-123.962;2023-05-02T09:56:28;11.20;;;2.60;;
51066;SDS011;37112;45.892;-123.962;2023-05-02T09:59:21;12.20;;;2.90;;
51066;SDS011;37112;45.892;-123.962;2023-05-02T10:01:54;19.40;;;2.70;;
51066;SDS011;37112;45.892;-123.962;2023-05-02T10:04:32;11.90;;;4.10;;
51066;SDS011;37112;45.892;-123.962;2023-05-02T10:07:02;12.00;;;2.40;;
51066;SDS011;37112;45.892;-123.962;2023-05-02T10:09:42;16.50;;;3.00;;
51066;SDS011;37112;45.892;-123.962;2023-05-02T10:14:49;12.40;;;2.40;;
51066;SDS011;37112;45.892;-123.962;2023-05-02T10:17:30;11.60;;;2.30;;
51066;SDS011;37112;45.892;-123.962;2023-05-02T10:20:09;15.00;;;2.00;;
51066;SDS011;37112;45.892;-123.962;2023-05-02T10:22:49;7.50;;;2.40;;
51066;SDS011;37112;45.892;-123.962;2023-05-02T10:25:23;17.80;;;3.40;;
51066;SDS011;37112;45.892;-123.962;2023-05-02T10:27:59;8.20;;;1.70;;
51066;SDS011;37112;45.892;-123.962;2023-05-02T10:30:34;12.20;;;2.40;;
51066;SDS011;37112;45.892;-123.962;2023-05-02T10:33:10;11.30;;;1.80;;
51066;SDS011;37112;45.892;-123.962;2023-05-02T10:35:40;12.40;;;2.60;;
51066;SDS011;37112;45.892;-123.962;2023-05-02T10:38:18;7.40;;;1.00;;
51066;SDS011;37112;45.892;-123.962;2023-05-02T10:40:53;6.50;;;1.40;;
51066;SDS011;37112;45.892;-123.962;2023-05-02T10:43:32;13.30;;;1.70;;
51066;SDS011;37112;45.892;-123.962;2023-05-02T10:49:03;6.20;;;1.60;;
51066;SDS011;37112;45.892;-123.962;2023-05-02T10:51:40;8.30;;;1.80;;
51066;SDS011;37112;45.892;-123.962;2023-05-02T10:54:21;8.70;;;1.60;;
51066;SDS011;37112;45.892;-123.962;2023-05-02T10:59:39;10.50;;;2.10;;
51066;SDS011;37112;45.892;-123.962;2023-05-02T11:05:21;13.60;;;2.30;;
51066;SDS011;37112;45.892;-123.962;2023-05-02T11:07:46;9.60;;;1.90;;
51066;SDS011;37112;45.892;-123.962;2023-05-02T11:10:41;14.60;;;1.80;;
51066;SDS011;37112;45.892;-123.962;2023-05-02T11:13:17;8.20;;;1.80;;
51066;SDS011;37112;45.892;-123.962;2023-05-02T11:16:22;10.00;;;1.60;;
51066;SDS011;37112;45.892;-123.962;2023-05-02T11:18:59;13.80;;;1.50;;
51066;SDS011;37112;45.892;-123.962;2023-05-02T11:21:28;11.60;;;2.30;;
51066;SDS011;37112;45.892;-123.962;2023-05-02T11:30:13;9.70;;;1.50;;
51066;SDS011;37112;45.892;-123.962;2023-05-02T11:33:13;4.50;;;1.30;;
51066;SDS011;37112;45.892;-123.962;2023-05-02T11:35:49;7.80;;;1.50;;
51066;SDS011;37112;45.892;-123.962;2023-05-02T11:38:26;11.20;;;1.40;;
51066;SDS011;37112;45.892;-123.962;2023-05-02T11:41:09;7.40;;;1.80;;
51066;SDS011;37112;45.892;-123.962;2023-05-02T11:43:43;5.80;;;1.60;;
51066;SDS011;37112;45.892;-123.962;2023-05-02T11:46:18;8.10;;;1.60;;
51066;SDS011;37112;45.892;-123.962;2023-05-02T11:48:48;11.10;;;1.70;;
51066;SDS011;37112;45.892;-123.962;2023-05-02T11:51:24;12.40;;;1.80;;
51066;SDS011;37112;45.892;-123.962;2023-05-02T11:53:59;18.60;;;3.60;;
51066;SDS011;37112;45.892;-123.962;2023-05-02T11:56:29;10.90;;;1.90;;
51066;SDS011;37112;45.892;-123.962;2023-05-02T11:59:03;13.40;;;1.70;;
51066;SDS011;37112;45.892;-123.962;2023-05-02T12:01:37;8.90;;;2.00;;
51066;SDS011;37112;45.892;-123.962;2023-05-02T12:04:21;10.00;;;1.70;;
51066;SDS011;37112;45.892;-123.962;2023-05-02T12:06:55;8.90;;;1.60;;
51066;SDS011;37112;45.892;-123.962;2023-05-02T12:09:24;6.20;;;2.20;;
51066;SDS011;37112;45.892;-123.962;2023-05-02T12:11:58;5.30;;;1.90;;
51066;SDS011;37112;45.892;-123.962;2023-05-02T12:14:30;15.10;;;1.70;;
51066;SDS011;37112;45.892;-123.962;2023-05-02T12:16:59;7.50;;;1.80;;
51066;SDS011;37112;45.892;-123.962;2023-05-02T12:19:27;9.50;;;1.90;;
51066;SDS011;37112;45.892;-123.962;2023-05-02T12:22:05;10.60;;;2.80;;
51066;SDS011;37112;45.892;-123.962;2023-05-02T12:24:40;19.50;;;2.40;;
51066;SDS011;37112;45.892;-123.962;2023-05-02T12:27:10;14.50;;;2.20;;
51066;SDS011;37112;45.892;-123.962;2023-05-02T12:29:41;8.50;;;1.90;;
51066;SDS011;37112;45.892;-123.962;2023-05-02T12:32:26;18.90;;;3.00;;
51066;SDS011;37112;45.892;-123.962;2023-05-02T12:35:02;23.60;;;2.10;;
51066;SDS011;37112;45.892;-123.962;2023-05-02T12:37:51;16.00;;;2.80;;
51066;SDS011;37112;45.892;-123.962;2023-05-02T12:40:38;9.60;;;2.20;;
51066;SDS011;37112;45.892;-123.962;2023-05-02T12:43:18;16.20;;;2.60;;
51066;SDS011;37112;45.892;-123.962;2023-05-02T12:46:07;15.70;;;2.20;;
51066;SDS011;37112;45.892;-123.962;2023-05-02T12:48:44;13.20;;;2.40;;
51066;SDS011;37112;45.892;-123.962;2023-05-02T12:51:32;31.70;;;4.60;;
51066;SDS011;37112;45.892;-123.962;2023-05-02T12:54:07;31.40;;;4.50;;
51066;SDS011;37112;45.892;-123.962;2023-05-02T12:56:50;19.80;;;3.80;;
51066;SDS011;37112;45.892;-123.962;2023-05-02T12:59:28;22.00;;;4.20;;
51066;SDS011;37112;45.892;-123.962;2023-05-02T13:02:06;23.40;;;3.80;;
51066;SDS011;37112;45.892;-123.962;2023-05-02T13:04:35;21.60;;;4.00;;
51066;SDS011;37112;45.892;-123.962;2023-05-02T13:07:11;10.30;;;2.80;;
51066;SDS011;37112;45.892;-123.962;2023-05-02T13:09:48;11.90;;;2.20;;
51066;SDS011;37112;45.892;-123.962;2023-05-02T13:12:08;11.00;;;2.10;;
51066;SDS011;37112;45.892;-123.962;2023-05-02T13:14:43;15.60;;;3.30;;
51066;SDS011;37112;45.892;-123.962;2023-05-02T13:17:19;13.30;;;2.70;;
51066;SDS011;37112;45.892;-123.962;2023-05-02T13:19:54;11.10;;;2.30;;
51066;SDS011;37112;45.892;-123.962;2023-05-02T13:22:29;20.50;;;3.40;;
51066;SDS011;37112;45.892;-123.962;2023-05-02T13:25:05;12.40;;;2.50;;
51066;SDS011;37112;45.892;-123.962;2023-05-02T13:27:41;17.40;;;2.80;;
51066;SDS011;37112;45.892;-123.962;2023-05-02T13:30:11;21.30;;;5.80;;
51066;SDS011;37112;45.892;-123.962;2023-05-02T13:32:34;19.30;;;2.90;;
51066;SDS011;37112;45.892;-123.962;2023-05-02T13:34:58;14.00;;;2.60;;
51066;SDS011;37112;45.892;-123.962;2023-05-02T13:37:22;15.70;;;2.60;;
51066;SDS011;37112;45.892;-123.962;2023-05-02T13:39:57;10.30;;;3.20;;
51066;SDS011;37112;45.892;-123.962;2023-05-02T13:42:32;10.10;;;2.30;;
51066;SDS011;37112;45.892;-123.962;2023-05-02T13:45:07;20.90;;;2.90;;
51066;SDS011;37112;45.892;-123.962;2023-05-02T13:47:37;13.10;;;3.60;;
51066;SDS011;37112;45.892;-123.962;2023-05-02T13:50:13;31.40;;;6.10;;
51066;SDS011;37112;45.892;-123.962;2023-05-02T13:52:49;18.80;;;5.40;;
51066;SDS011;37112;45.892;-123.962;2023-05-02T13:55:25;9.20;;;2.50;;
51066;SDS011;37112;45.892;-123.962;2023-05-02T13:58:01;12.80;;;3.30;;
51066;SDS011;37112;45.892;-123.962;2023-05-02T14:00:36;12.20;;;2.20;;
51066;SDS011;37112;45.892;-123.962;2023-05-02T14:03:06;13.60;;;3.30;;
51066;SDS011;37112;45.892;-123.962;2023-05-02T14:05:36;15.30;;;2.60;;
51066;SDS011;37112;45.892;-123.962;2023-05-02T14:08:12;11.20;;;2.50;;
51066;SDS011;37112;45.892;-123.962;2023-05-02T14:10:47;11.00;;;2.50;;
51066;SDS011;37112;45.892;-123.962;2023-05-02T14:13:23;16.20;;;2.30;;
51066;SDS011;37112;45.892;-123.962;2023-05-02T14:15:58;11.60;;;3.10;;
51066;SDS011;37112;45.892;-123.962;2023-05-02T14:18:30;13.50;;;2.50;;
51066;SDS011;37112;45.892;-123.962;2023-05-02T14:20:59;16.30;;;2.50;;
51066;SDS011;37112;45.892;-123.962;2023-05-02T14:23:33;17.20;;;2.90;;
51066;SDS011;37112;45.892;-123.962;2023-05-02T14:26:08;13.90;;;2.90;;
51066;SDS011;37112;45.892;-123.962;2023-05-02T14:28:32;15.80;;;3.20;;
51066;SDS011;37112;45.892;-123.962;2023-05-02T14:31:00;16.90;;;4.60;;
51066;SDS011;37112;45.892;-123.962;2023-05-02T14:33:23;13.30;;;2.70;;
51066;SDS011;37112;45.892;-123.962;2023-05-02T14:35:51;17.10;;;3.50;;
51066;SDS011;37112;45.892;-123.962;2023-05-02T14:38:20;12.30;;;2.70;;
51066;SDS011;37112;45.892;-123.962;2023-05-02T14:40:56;17.20;;;2.90;;
51066;SDS011;37112;45.892;-123.962;2023-05-02T14:43:31;38.60;;;6.30;;
51066;SDS011;37112;45.892;-123.962;2023-05-02T14:46:00;22.30;;;5.10;;
51066;SDS011;37112;45.892;-123.962;2023-05-02T14:48:35;29.40;;;5.70;;
51066;SDS011;37112;45.892;-123.962;2023-05-02T14:51:11;27.10;;;4.70;;
51066;SDS011;37112;45.892;-123.962;2023-05-02T14:53:38;19.50;;;4.10;;
51066;SDS011;37112;45.892;-123.962;2023-05-02T14:56:10;22.40;;;3.80;;
51066;SDS011;37112;45.892;-123.962;2023-05-02T14:58:44;28.30;;;5.90;;
51066;SDS011;37112;45.892;-123.962;2023-05-02T15:01:19;29.20;;;5.70;;
51066;SDS011;37112;45.892;-123.962;2023-05-02T15:03:42;26.00;;;4.30;;
51066;SDS011;37112;45.892;-123.962;2023-05-02T15:06:30;19.00;;;2.80;;